Snohomish County (Paine Field) Airport
KPAE : rendu visible

Aérodrome :











RETROUVEZ-NOUS SUR...

 
LOGIN :

S'inscrire | Disclaimer

   EN    FR    IT 

 









Légende :    VFR   VFR Marginal   IFR   IFR Intensif   IFR Très Intensif
Visi : 
Plafond : 
>= 8 km
>= 3000ft
5 à 8 km
1000 à 3000 ft
1500m à 5 km
500 à 1000 ft
800 à 1500m
200 à 500 ft
< 800m
< 200 ft
Symboles :   Orages  Brouillard  Fortes neiges  Fortes précipitations  Vent > 20 kt






- Altitude de l'aérodrome : 606 ft
- Code IATA : PAE


KPAE - Snohomish County (Paine Field)

DERNIER METAR :
  • 242155Z 19018G28KT 10SM BKN018 BKN090 10/06 A2994 RMK AO2 T01000061

METARs EXPIRÉS :
  • 242053Z 19019G29KT 10SM SCT019 BKN070 BKN120 11/07 A2994 RMK AO2 PK WND 20031/2022 SLP139 60003 T01060072 51016
  • 242013Z 20018G29KT 10SM SCT018 BKN026 BKN090 10/06 A2995 RMK AO2 PK WND 20029/2004 T01000061
  • 241953Z 19021G27KT 10SM SCT013 SCT017 BKN032 10/07 A2993 RMK AO2 PK WND 18033/1919 RAE25 SLP136 P0001 T01000067

TAF KPAE
Valide du 24 à 21h jusqu'au 25 à 18h UTC


242114Z 2421/2518 19017G27KT P6SM SCT025 BKN050 BKN090
TEMPO 2421/2424 -SHRA BKN025 BKN050
FM250300 17012G22KT P6SM VCSH BKN025 BKN070
FM251200 15008KT P6SM -RA OVC025
FM251700 15008KT P6SM VCSH BKN040



MET'MAP, la Météo Aéronautique d'un coup d'oeil ! - Copyright ORBIFLY Décembre 2007 - Disclaimer

ORBIFLY MET'MAP TEAM :

Programmation & Développement : Alexandra Zaïnal
Sur une idée originale de : Baudouin d'Aumeries
Assistance à la programmation : Marc-Olivier Méhu
Soutien technique & logistique : Manuel Goepfert

Contact : metmap@orbifly.com




SOURCES & CREDITS :

   NOAA       Earth
Advisory